Time;durP1;ratioP1;P1;durP2;ratioP2;P2;SDS_P1;SDS_P2;PMS_P1;PMS_P2;Temp;Humidity;BMP_temperature;BMP_pressure;BME280_temperature;BME280_humidity;BME280_pressure;Samples;Min_cycle;Max_cycle;Signal;HPM_P1;HPM_P2
2022/11/09 00:00:04;;;;;;;10.40;5.18;;;;;;;;;;5066723;28;20036;-76
2022/11/09 00:02:30;;;;;;;12.13;5.35;;;;;;;;;;5061310;28;20025;-76
2022/11/09 00:04:56;;;;;;;14.18;5.90;;;;;;;;;;5068235;28;20032;-76
2022/11/09 00:07:22;;;;;;;12.18;6.72;;;;;;;;;;5085202;28;20728;-76
2022/11/09 00:09:48;;;;;;;22.85;10.95;;;;;;;;;;5085201;28;20047;-75
2022/11/09 00:12:14;;;;;;;18.88;9.02;;;;;;;;;;5083372;28;20042;-76
2022/11/09 00:14:40;;;;;;;19.15;9.85;;;;;;;;;;5054586;28;20036;-76
2022/11/09 00:17:06;;;;;;;22.85;10.68;;;;;;;;;;5082031;28;20023;-76
2022/11/09 00:19:32;;;;;;;9.95;5.20;;;;;;;;;;5086591;28;20646;-76
2022/11/09 00:21:58;;;;;;;7.00;1.70;;;;;;;;;;5086973;28;20031;-76
2022/11/09 00:24:24;;;;;;;6.57;2.90;;;;;;;;;;5068066;28;20098;-75
2022/11/09 00:26:50;;;;;;;9.07;2.42;;;;;;;;;;5084331;28;20028;-76
2022/11/09 00:29:16;;;;;;;11.13;3.72;;;;;;;;;;5074714;28;20025;-76
2022/11/09 00:31:42;;;;;;;9.00;3.88;;;;;;;;;;5058936;28;20404;-76
2022/11/09 00:34:08;;;;;;;10.73;3.78;;;;;;;;;;5078905;28;20078;-76
2022/11/09 00:36:34;;;;;;;14.98;7.15;;;;;;;;;;5054763;28;20405;-75
2022/11/09 00:39:00;;;;;;;8.75;3.35;;;;;;;;;;5058542;28;20036;-76
2022/11/09 00:41:26;;;;;;;10.18;3.58;;;;;;;;;;5061607;28;20031;-76
2022/11/09 00:43:53;;;;;;;8.25;2.80;;;;;;;;;;5079982;28;20032;-76
2022/11/09 00:46:19;;;;;;;8.60;2.80;;;;;;;;;;5085188;28;20040;-76
2022/11/09 00:48:46;;;;;;;8.20;3.08;;;;;;;;;;5080835;28;20032;-76
2022/11/09 00:51:12;;;;;;;8.98;3.42;;;;;;;;;;5076775;28;20040;-76
2022/11/09 00:53:38;;;;;;;7.70;2.78;;;;;;;;;;5073957;28;20028;-76
2022/11/09 00:56:06;;;;;;;7.63;2.50;;;;;;;;;;5085757;28;20036;-76
2022/11/09 00:58:33;;;;;;;10.98;3.70;;;;;;;;;;5080358;28;20671;-76
2022/11/09 01:01:00;;;;;;;11.68;3.15;;;;;;;;;;5051263;28;20503;-76
2022/11/09 01:03:26;;;;;;;10.63;3.67;;;;;;;;;;5076403;28;20032;-76
2022/11/09 01:05:52;;;;;;;10.52;3.47;;;;;;;;;;5069680;28;20106;-76
2022/11/09 01:08:19;;;;;;;9.68;3.30;;;;;;;;;;5076212;28;20063;-76
2022/11/09 01:10:48;;;;;;;13.57;3.53;;;;;;;;;;5087040;28;20073;-76
2022/11/09 01:13:15;;;;;;;8.95;3.25;;;;;;;;;;5077078;28;20063;-76
2022/11/09 01:15:42;;;;;;;7.03;2.95;;;;;;;;;;5076415;28;20066;-76
2022/11/09 01:18:08;;;;;;;9.90;3.35;;;;;;;;;;5086077;28;20039;-76
2022/11/09 01:20:34;;;;;;;10.45;3.40;;;;;;;;;;5083013;28;20020;-76
2022/11/09 01:23:00;;;;;;;7.97;2.90;;;;;;;;;;5085268;28;20047;-76
2022/11/09 01:25:26;;;;;;;9.70;3.28;;;;;;;;;;5087048;28;20385;-76
2022/11/09 01:27:52;;;;;;;7.97;3.40;;;;;;;;;;5059302;28;20136;-76
2022/11/09 01:30:18;;;;;;;14.05;3.60;;;;;;;;;;5090350;28;20617;-76
2022/11/09 01:32:44;;;;;;;11.15;3.63;;;;;;;;;;5075868;28;20047;-76
2022/11/09 01:35:10;;;;;;;7.55;3.17;;;;;;;;;;5068333;28;20679;-76
2022/11/09 01:37:36;;;;;;;12.82;3.45;;;;;;;;;;5073592;28;20028;-76
2022/11/09 01:40:02;;;;;;;12.80;3.22;;;;;;;;;;5072749;28;20032;-76
2022/11/09 01:42:28;;;;;;;9.77;3.30;;;;;;;;;;5084779;28;20074;-76
2022/11/09 01:45:13;;;;;;;7.35;1.95;;;;;;;;;;5091251;28;20032;-76
2022/11/09 01:47:39;;;;;;;8.88;2.90;;;;;;;;;;5062833;28;20043;-75
2022/11/09 01:50:06;;;;;;;9.00;2.25;;;;;;;;;;5088613;28;20392;-76
2022/11/09 01:52:34;;;;;;;7.60;2.38;;;;;;;;;;5077262;28;20036;-76
2022/11/09 01:55:11;;;;;;;7.57;2.38;;;;;;;;;;5071803;28;20853;-76
2022/11/09 01:57:57;;;;;;;5.97;1.75;;;;;;;;;;5088239;28;20028;-76
2022/11/09 02:00:23;;;;;;;4.45;1.70;;;;;;;;;;5082151;28;20024;-76
2022/11/09 02:02:52;;;;;;;6.70;1.75;;;;;;;;;;5082645;28;20676;-76
2022/11/09 02:05:21;;;;;;;3.65;1.40;;;;;;;;;;5052371;28;20640;-76
2022/11/09 02:07:48;;;;;;;7.05;1.58;;;;;;;;;;5053061;28;20075;-76
2022/11/09 02:10:19;;;;;;;7.45;2.28;;;;;;;;;;5064283;28;20369;-76
2022/11/09 02:12:45;;;;;;;7.28;1.50;;;;;;;;;;5069598;28;20027;-76
2022/11/09 02:15:12;;;;;;;4.57;1.10;;;;;;;;;;5066426;28;20033;-76
2022/11/09 02:17:38;;;;;;;5.72;1.40;;;;;;;;;;5061560;28;20777;-76
2022/11/09 02:20:14;;;;;;;7.07;1.40;;;;;;;;;;5068764;28;20036;-76
2022/11/09 02:22:40;;;;;;;6.10;1.38;;;;;;;;;;5065038;28;20047;-76
2022/11/09 02:25:07;;;;;;;5.47;2.00;;;;;;;;;;5067215;28;20090;-76
2022/11/09 02:27:33;;;;;;;10.52;2.30;;;;;;;;;;5062266;28;20029;-76
2022/11/09 02:30:00;;;;;;;4.60;1.50;;;;;;;;;;5068686;28;20036;-76
2022/11/09 02:32:27;;;;;;;9.07;2.20;;;;;;;;;;5057853;28;20040;-76
2022/11/09 02:34:53;;;;;;;5.85;1.73;;;;;;;;;;5068835;28;20058;-76
2022/11/09 02:37:25;;;;;;;9.82;2.40;;;;;;;;;;5062726;28;20123;-76
2022/11/09 02:39:51;;;;;;;10.15;2.55;;;;;;;;;;5066046;28;20033;-76
2022/11/09 02:42:17;;;;;;;7.60;2.33;;;;;;;;;;5067278;28;20028;-76
2022/11/09 02:44:45;;;;;;;12.45;3.33;;;;;;;;;;5070202;28;20040;-76
2022/11/09 02:47:11;;;;;;;7.47;2.63;;;;;;;;;;5068197;28;20505;-76
2022/11/09 02:49:37;;;;;;;6.80;2.00;;;;;;;;;;5051992;28;20051;-76
2022/11/09 02:52:03;;;;;;;9.05;2.72;;;;;;;;;;5066468;28;20055;-76
2022/11/09 02:54:29;;;;;;;8.85;2.97;;;;;;;;;;5062693;28;20063;-76
2022/11/09 02:56:56;;;;;;;10.30;2.08;;;;;;;;;;5061263;28;20741;-76
2022/11/09 02:59:22;;;;;;;7.47;2.50;;;;;;;;;;5061193;28;20086;-76
2022/11/09 03:01:48;;;;;;;8.07;2.38;;;;;;;;;;5066434;28;20040;-76
2022/11/09 03:04:14;;;;;;;7.65;2.10;;;;;;;;;;5065897;28;20531;-76
2022/11/09 03:06:40;;;;;;;9.10;2.20;;;;;;;;;;5075646;28;20062;-76
2022/11/09 03:09:08;;;;;;;6.53;2.35;;;;;;;;;;5089796;28;20081;-76
2022/11/09 03:11:35;;;;;;;9.50;2.35;;;;;;;;;;5080306;28;20032;-76
2022/11/09 03:14:01;;;;;;;7.72;2.58;;;;;;;;;;5085390;28;20062;-76
2022/11/09 03:16:27;;;;;;;8.98;2.75;;;;;;;;;;5088638;28;20036;-76
2022/11/09 03:18:54;;;;;;;6.63;2.35;;;;;;;;;;5062990;28;20445;-76
2022/11/09 03:21:21;;;;;;;8.73;2.30;;;;;;;;;;5089461;28;20082;-76
2022/11/09 03:23:47;;;;;;;9.20;2.97;;;;;;;;;;5078070;28;20031;-76
2022/11/09 03:26:13;;;;;;;9.88;2.50;;;;;;;;;;5084751;28;20036;-76
2022/11/09 03:28:40;;;;;;;9.00;2.55;;;;;;;;;;5079475;28;20063;-76
2022/11/09 03:31:07;;;;;;;6.97;2.28;;;;;;;;;;5057467;28;20436;-76
2022/11/09 03:33:33;;;;;;;8.88;2.42;;;;;;;;;;5084080;28;20123;-76
2022/11/09 03:35:59;;;;;;;6.53;2.25;;;;;;;;;;5078210;28;20139;-76
2022/11/09 03:38:25;;;;;;;7.15;2.13;;;;;;;;;;5068640;28;20066;-76
2022/11/09 03:40:52;;;;;;;6.00;1.73;;;;;;;;;;5066878;28;20043;-76
2022/11/09 03:43:18;;;;;;;7.55;2.00;;;;;;;;;;5065848;28;20126;-76
2022/11/09 03:45:44;;;;;;;7.20;2.22;;;;;;;;;;5075176;28;20107;-76
2022/11/09 03:48:10;;;;;;;7.45;2.50;;;;;;;;;;5072429;28;20091;-76
2022/11/09 03:50:39;;;;;;;7.57;2.20;;;;;;;;;;5057161;28;20485;-76
2022/11/09 03:53:05;;;;;;;7.30;2.70;;;;;;;;;;5081656;28;20036;-75
2022/11/09 03:55:31;;;;;;;12.52;4.53;;;;;;;;;;5086670;28;20039;-76
2022/11/09 03:57:57;;;;;;;9.98;3.47;;;;;;;;;;5060045;28;20395;-76
2022/11/09 04:00:24;;;;;;;9.55;2.88;;;;;;;;;;5080878;28;20074;-76
2022/11/09 04:02:51;;;;;;;8.80;2.70;;;;;;;;;;5061050;28;20040;-76
2022/11/09 04:05:17;;;;;;;8.95;3.05;;;;;;;;;;5066154;28;20045;-76
2022/11/09 04:07:47;;;;;;;8.90;3.05;;;;;;;;;;5063556;28;20394;-76
2022/11/09 04:10:13;;;;;;;8.38;3.35;;;;;;;;;;5059494;28;20496;-76
2022/11/09 04:12:39;;;;;;;8.80;3.30;;;;;;;;;;5054524;28;20036;-76
2022/11/09 04:15:05;;;;;;;7.95;3.13;;;;;;;;;;5060414;28;20031;-76
2022/11/09 04:17:31;;;;;;;10.75;3.35;;;;;;;;;;5066511;28;20033;-76
2022/11/09 04:19:57;;;;;;;8.43;3.45;;;;;;;;;;5060472;28;20032;-76
2022/11/09 04:22:23;;;;;;;9.80;3.47;;;;;;;;;;5056489;28;20382;-76
2022/11/09 04:24:49;;;;;;;11.15;3.90;;;;;;;;;;5060482;28;20037;-76
2022/11/09 04:27:15;;;;;;;11.52;3.65;;;;;;;;;;5057365;28;20037;-76
2022/11/09 04:29:41;;;;;;;12.77;3.40;;;;;;;;;;5058168;28;20071;-76
2022/11/09 04:32:07;;;;;;;12.02;3.75;;;;;;;;;;5067131;28;20040;-76
2022/11/09 04:34:33;;;;;;;10.07;3.25;;;;;;;;;;5065085;28;20048;-76
2022/11/09 04:37:00;;;;;;;10.20;3.70;;;;;;;;;;5068215;28;20037;-76
2022/11/09 04:39:26;;;;;;;9.20;3.72;;;;;;;;;;5057253;28;20078;-75
2022/11/09 04:41:52;;;;;;;12.07;3.70;;;;;;;;;;5069342;28;20068;-76
2022/11/09 04:44:18;;;;;;;10.18;3.70;;;;;;;;;;5063256;28;20417;-77
2022/11/09 04:46:44;;;;;;;9.32;4.07;;;;;;;;;;5050318;28;20037;-75
2022/11/09 04:49:10;;;;;;;7.93;3.80;;;;;;;;;;5063812;28;20039;-76
2022/11/09 04:51:36;;;;;;;11.75;2.80;;;;;;;;;;5067790;28;20707;-76
2022/11/09 04:54:02;;;;;;;12.18;3.30;;;;;;;;;;5056332;28;20037;-76
2022/11/09 04:56:28;;;;;;;12.73;4.07;;;;;;;;;;5060060;28;20056;-76
2022/11/09 04:58:54;;;;;;;11.38;3.55;;;;;;;;;;5064342;28;20116;-75
2022/11/09 05:01:20;;;;;;;11.98;5.75;;;;;;;;;;5061277;28;20108;-75
2022/11/09 05:03:46;;;;;;;9.20;4.15;;;;;;;;;;5065849;28;20044;-76
2022/11/09 05:08:57;;;;;;;14.15;5.07;;;;;;;;;;5077376;28;20133;-75
2022/11/09 05:11:23;;;;;;;9.77;4.53;;;;;;;;;;5079178;28;20489;-76
2022/11/09 05:13:50;;;;;;;12.30;5.20;;;;;;;;;;5060260;28;20036;-76
2022/11/09 05:16:16;;;;;;;15.30;6.50;;;;;;;;;;5079293;28;20157;-76
2022/11/09 05:18:42;;;;;;;22.45;8.85;;;;;;;;;;5084719;28;20122;-76
2022/11/09 05:21:09;;;;;;;17.67;6.82;;;;;;;;;;5079403;28;20182;-76
2022/11/09 05:26:19;;;;;;;16.60;10.07;;;;;;;;;;5079452;28;20090;-76
2022/11/09 05:28:45;;;;;;;17.73;10.50;;;;;;;;;;5081832;28;20497;-76
2022/11/09 05:31:11;;;;;;;14.82;9.57;;;;;;;;;;5076905;28;20036;-76
2022/11/09 05:33:37;;;;;;;18.42;9.75;;;;;;;;;;5087832;28;20024;-76
2022/11/09 05:36:03;;;;;;;19.70;11.13;;;;;;;;;;5082504;28;20032;-76
2022/11/09 05:38:29;;;;;;;15.43;8.55;;;;;;;;;;5081531;28;20070;-76
2022/11/09 05:40:55;;;;;;;12.52;6.05;;;;;;;;;;5083462;28;20055;-76
2022/11/09 05:43:21;;;;;;;10.23;4.68;;;;;;;;;;5085382;28;20825;-75
2022/11/09 05:45:47;;;;;;;11.90;4.57;;;;;;;;;;5077175;28;20137;-76
2022/11/09 05:48:14;;;;;;;11.23;4.72;;;;;;;;;;5078422;28;20092;-75
2022/11/09 05:50:41;;;;;;;8.70;4.15;;;;;;;;;;5079035;28;20478;-75
2022/11/09 05:53:07;;;;;;;14.25;6.85;;;;;;;;;;5088922;28;20036;-75
2022/11/09 05:55:33;;;;;;;13.27;7.50;;;;;;;;;;5079065;28;20032;-75
2022/11/09 05:58:00;;;;;;;14.20;7.35;;;;;;;;;;5086107;28;20577;-75
2022/11/09 06:00:26;;;;;;;15.98;8.93;;;;;;;;;;5080837;28;20028;-75
2022/11/09 06:02:52;;;;;;;16.15;8.13;;;;;;;;;;5080595;28;20032;-75
2022/11/09 06:05:19;;;;;;;18.40;8.60;;;;;;;;;;5088377;28;20520;-75
2022/11/09 06:07:45;;;;;;;15.98;7.75;;;;;;;;;;5084725;28;20461;-75
2022/11/09 06:10:11;;;;;;;14.93;6.45;;;;;;;;;;5082919;28;20033;-75
2022/11/09 06:12:37;;;;;;;17.88;7.45;;;;;;;;;;5075601;28;20118;-75
2022/11/09 06:15:04;;;;;;;26.35;16.52;;;;;;;;;;5082063;28;20088;-75
2022/11/09 06:17:30;;;;;;;19.17;9.43;;;;;;;;;;5086310;28;20028;-75
2022/11/09 06:19:56;;;;;;;17.42;8.45;;;;;;;;;;5079738;28;20057;-75
2022/11/09 06:22:22;;;;;;;15.38;8.00;;;;;;;;;;5087374;28;20085;-75
2022/11/09 06:24:48;;;;;;;17.05;9.38;;;;;;;;;;5082442;28;20028;-75
2022/11/09 06:27:14;;;;;;;22.08;11.25;;;;;;;;;;5083185;28;20535;-75
2022/11/09 06:29:40;;;;;;;19.30;9.93;;;;;;;;;;5083053;28;20043;-74
2022/11/09 06:32:06;;;;;;;13.73;7.32;;;;;;;;;;5082569;28;20046;-74
2022/11/09 06:34:32;;;;;;;14.82;8.43;;;;;;;;;;5082682;28;20025;-74
2022/11/09 06:36:58;;;;;;;17.55;8.70;;;;;;;;;;5081772;28;20469;-75
2022/11/09 06:39:24;;;;;;;21.73;10.77;;;;;;;;;;5083569;28;20093;-75
2022/11/09 06:41:50;;;;;;;19.02;9.25;;;;;;;;;;5076675;28;20025;-75
2022/11/09 06:44:16;;;;;;;13.00;7.07;;;;;;;;;;5076681;28;20032;-75
2022/11/09 06:46:42;;;;;;;19.20;9.13;;;;;;;;;;5085975;28;20114;-75
2022/11/09 06:49:08;;;;;;;22.13;13.68;;;;;;;;;;5088734;28;21042;-75
2022/11/09 06:51:34;;;;;;;26.33;13.30;;;;;;;;;;5075162;28;20036;-75
2022/11/09 06:54:00;;;;;;;18.75;8.98;;;;;;;;;;5089765;28;20107;-75
2022/11/09 06:56:26;;;;;;;17.00;9.73;;;;;;;;;;5083337;28;20127;-75
2022/11/09 06:58:52;;;;;;;16.25;9.13;;;;;;;;;;5087215;28;20047;-75
2022/11/09 07:01:20;;;;;;;21.98;10.00;;;;;;;;;;5083453;28;20120;-75
2022/11/09 07:03:46;;;;;;;18.73;10.00;;;;;;;;;;5084756;28;20026;-76
2022/11/09 07:06:13;;;;;;;20.00;9.75;;;;;;;;;;5086819;28;20055;-75
2022/11/09 07:08:39;;;;;;;15.25;10.57;;;;;;;;;;5084489;28;20024;-75
2022/11/09 07:11:07;;;;;;;18.83;11.70;;;;;;;;;;5081678;28;20032;-75
2022/11/09 07:13:33;;;;;;;21.77;11.27;;;;;;;;;;5079882;28;20487;-75
2022/11/09 07:15:59;;;;;;;26.08;12.85;;;;;;;;;;5083395;28;20409;-76
2022/11/09 07:18:25;;;;;;;23.15;13.48;;;;;;;;;;5085553;28;20024;-75
2022/11/09 07:20:51;;;;;;;24.40;13.90;;;;;;;;;;5084605;28;20031;-76
2022/11/09 07:23:17;;;;;;;27.35;18.95;;;;;;;;;;5087415;28;20396;-76
2022/11/09 07:25:43;;;;;;;31.73;21.98;;;;;;;;;;5086684;28;20024;-76
2022/11/09 07:28:10;;;;;;;24.75;15.68;;;;;;;;;;5084806;28;20115;-76
2022/11/09 07:30:37;;;;;;;29.30;18.83;;;;;;;;;;5081849;28;20028;-76
2022/11/09 07:33:03;;;;;;;33.20;25.20;;;;;;;;;;5087953;28;20527;-75
2022/11/09 07:35:30;;;;;;;50.38;32.72;;;;;;;;;;5083343;28;20115;-76
2022/11/09 07:38:00;;;;;;;38.95;27.77;;;;;;;;;;5083653;28;20054;-76
2022/11/09 07:40:26;;;;;;;47.15;31.73;;;;;;;;;;5077479;28;20111;-76
2022/11/09 07:42:57;;;;;;;40.17;28.20;;;;;;;;;;5092891;28;20098;-76
2022/11/09 07:45:23;;;;;;;44.55;31.63;;;;;;;;;;5080123;28;20032;-76
2022/11/09 07:47:49;;;;;;;37.83;27.30;;;;;;;;;;5078599;28;20041;-75
2022/11/09 07:50:15;;;;;;;51.30;35.40;;;;;;;;;;5081156;28;20028;-76
2022/11/09 07:52:41;;;;;;;32.85;26.38;;;;;;;;;;5084478;28;20111;-75
2022/11/09 07:55:07;;;;;;;38.22;28.27;;;;;;;;;;5085250;28;20368;-75
2022/11/09 07:57:33;;;;;;;46.63;35.90;;;;;;;;;;5087226;28;20031;-76
2022/11/09 07:59:59;;;;;;;52.75;40.53;;;;;;;;;;5084780;28;20032;-76
2022/11/09 08:02:25;;;;;;;59.72;41.80;;;;;;;;;;5084091;28;20073;-75
2022/11/09 08:04:51;;;;;;;18.40;11.02;;;;;;;;;;5082564;28;20103;-75
2022/11/09 08:07:17;;;;;;;42.30;29.48;;;;;;;;;;5085569;28;20055;-75
2022/11/09 08:09:43;;;;;;;26.98;18.63;;;;;;;;;;5082956;28;20028;-75
2022/11/09 08:12:09;;;;;;;31.15;21.88;;;;;;;;;;5085617;28;20677;-75
2022/11/09 08:14:35;;;;;;;44.67;31.85;;;;;;;;;;5081937;28;20051;-75
2022/11/09 08:17:01;;;;;;;66.03;40.67;;;;;;;;;;5081681;28;20401;-75
2022/11/09 08:19:26;;;;;;;32.25;22.02;;;;;;;;;;5083016;28;20093;-75
2022/11/09 08:21:56;;;;;;;33.05;22.88;;;;;;;;;;5077801;28;20127;-75
2022/11/09 08:24:22;;;;;;;20.92;14.43;;;;;;;;;;5083401;28;20028;-75
2022/11/09 08:26:48;;;;;;;33.83;23.63;;;;;;;;;;5079359;28;20036;-75
2022/11/09 08:29:14;;;;;;;51.53;38.63;;;;;;;;;;5075111;28;20035;-76
2022/11/09 08:31:40;;;;;;;61.53;45.72;;;;;;;;;;5069312;28;20060;-75
2022/11/09 08:34:10;;;;;;;69.68;50.33;;;;;;;;;;5084946;28;20911;-75
2022/11/09 08:36:36;;;;;;;48.03;37.35;;;;;;;;;;5088008;28;20693;-75
2022/11/09 08:39:02;;;;;;;42.47;35.50;;;;;;;;;;5076600;28;20056;-75
2022/11/09 08:41:28;;;;;;;52.15;38.95;;;;;;;;;;5078306;28;20582;-75
2022/11/09 08:43:54;;;;;;;52.40;36.22;;;;;;;;;;5084178;28;20032;-75
2022/11/09 08:46:20;;;;;;;46.78;33.70;;;;;;;;;;5086573;28;20051;-75
2022/11/09 08:48:46;;;;;;;34.25;24.23;;;;;;;;;;5084691;28;20028;-75
2022/11/09 08:51:12;;;;;;;36.80;25.92;;;;;;;;;;5079320;28;20081;-75
2022/11/09 08:53:38;;;;;;;47.70;32.90;;;;;;;;;;5077137;28;20024;-75
2022/11/09 08:56:08;;;;;;;38.92;29.77;;;;;;;;;;5081476;28;20111;-75
2022/11/09 08:58:35;;;;;;;16.42;9.82;;;;;;;;;;5068519;28;20494;-75
2022/11/09 09:01:01;;;;;;;12.68;6.28;;;;;;;;;;5082683;28;20149;-75
2022/11/09 09:03:27;;;;;;;12.63;7.38;;;;;;;;;;5083473;28;20032;-75
2022/11/09 09:05:53;;;;;;;10.75;5.15;;;;;;;;;;5077919;28;20075;-75
2022/11/09 09:08:21;;;;;;;7.63;2.10;;;;;;;;;;5082205;28;20040;-75
2022/11/09 09:10:47;;;;;;;5.90;2.25;;;;;;;;;;5079046;28;20073;-75
2022/11/09 09:13:13;;;;;;;7.28;2.95;;;;;;;;;;5078369;28;20056;-75
2022/11/09 09:15:39;;;;;;;7.30;4.05;;;;;;;;;;5080681;28;20165;-75
2022/11/09 09:18:05;;;;;;;7.13;3.40;;;;;;;;;;5076648;28;20115;-75
2022/11/09 09:20:32;;;;;;;11.68;5.82;;;;;;;;;;5058404;28;20112;-75
2022/11/09 09:22:59;;;;;;;8.95;3.63;;;;;;;;;;5085170;28;20482;-74
2022/11/09 09:25:25;;;;;;;4.78;1.90;;;;;;;;;;5084178;28;20032;-75
2022/11/09 09:27:51;;;;;;;4.15;1.67;;;;;;;;;;5078555;28;20029;-75
2022/11/09 09:30:17;;;;;;;11.07;4.97;;;;;;;;;;5086029;28;20032;-75
2022/11/09 09:32:43;;;;;;;6.97;2.42;;;;;;;;;;5074130;28;20028;-75
2022/11/09 09:35:09;;;;;;;8.32;2.90;;;;;;;;;;5083910;28;20071;-74
2022/11/09 09:37:35;;;;;;;11.35;6.25;;;;;;;;;;5083993;28;20024;-75
2022/11/09 09:40:01;;;;;;;7.13;2.80;;;;;;;;;;5090025;28;20036;-74
2022/11/09 09:42:35;;;;;;;10.60;5.15;;;;;;;;;;5084355;28;20039;-74
2022/11/09 09:45:01;;;;;;;6.07;2.45;;;;;;;;;;5089777;28;20132;-75
2022/11/09 09:47:42;;;;;;;5.88;2.83;;;;;;;;;;5084547;28;20489;-75
2022/11/09 09:50:21;;;;;;;10.50;3.80;;;;;;;;;;5087348;28;20067;-75
2022/11/09 09:52:53;;;;;;;6.50;2.20;;;;;;;;;;5082374;28;20141;-75
2022/11/09 09:55:22;;;;;;;6.72;2.17;;;;;;;;;;5079230;28;20039;-75
2022/11/09 09:57:52;;;;;;;5.90;2.85;;;;;;;;;;5086370;28;20020;-74
2022/11/09 10:00:23;;;;;;;12.57;6.82;;;;;;;;;;5083322;28;20036;-74
2022/11/09 10:02:50;;;;;;;6.75;2.47;;;;;;;;;;5081137;28;20496;-75
2022/11/09 10:05:16;;;;;;;9.15;3.58;;;;;;;;;;5089299;28;20133;-75
2022/11/09 10:07:46;;;;;;;5.85;2.70;;;;;;;;;;5090547;28;20036;-74
2022/11/09 10:10:30;;;;;;;14.98;11.00;;;;;;;;;;5085084;28;20032;-75
2022/11/09 10:12:58;;;;;;;25.33;19.42;;;;;;;;;;5082251;28;20036;-75
2022/11/09 10:15:24;;;;;;;12.77;4.75;;;;;;;;;;5085444;28;20040;-75
2022/11/09 10:17:53;;;;;;;8.95;4.75;;;;;;;;;;5091127;28;20040;-74
2022/11/09 10:20:26;;;;;;;14.52;5.30;;;;;;;;;;5083508;28;20033;-75
2022/11/09 10:22:59;;;;;;;10.93;5.63;;;;;;;;;;5085772;28;20032;-75
2022/11/09 10:25:25;;;;;;;11.38;5.10;;;;;;;;;;5086119;28;20028;-75
2022/11/09 10:27:53;;;;;;;11.77;6.40;;;;;;;;;;5083305;28;20473;-75
2022/11/09 10:30:20;;;;;;;10.95;9.15;;;;;;;;;;5083439;28;20067;-75
2022/11/09 10:32:48;;;;;;;14.95;8.10;;;;;;;;;;5083302;28;20040;-74
2022/11/09 10:35:28;;;;;;;28.95;18.33;;;;;;;;;;5085467;28;20063;-75
2022/11/09 10:37:54;;;;;;;17.30;12.18;;;;;;;;;;5095039;28;20082;-75
2022/11/09 10:40:20;;;;;;;14.45;8.00;;;;;;;;;;5083117;28;20032;-75
2022/11/09 10:43:09;;;;;;;18.80;16.58;;;;;;;;;;5081118;28;20024;-75
2022/11/09 10:45:42;;;;;;;6.88;2.00;;;;;;;;;;5075372;28;20124;-74
2022/11/09 10:48:09;;;;;;;7.68;2.75;;;;;;;;;;5075630;28;20060;-75
2022/11/09 10:50:38;;;;;;;6.20;3.03;;;;;;;;;;5074612;28;20036;-75
2022/11/09 10:53:24;;;;;;;6.15;2.83;;;;;;;;;;5084367;28;20032;-74
2022/11/09 10:55:50;;;;;;;5.95;2.05;;;;;;;;;;5084324;28;20155;-75
2022/11/09 10:58:25;;;;;;;10.18;4.70;;;;;;;;;;5075712;28;20080;-75
2022/11/09 11:01:15;;;;;;;10.15;2.53;;;;;;;;;;5079496;28;20441;-75
2022/11/09 11:03:41;;;;;;;10.65;5.20;;;;;;;;;;5073103;28;20047;-74
2022/11/09 11:06:23;;;;;;;7.43;3.08;;;;;;;;;;5079640;28;20083;-75
2022/11/09 11:08:50;;;;;;;5.95;2.30;;;;;;;;;;5088899;28;20031;-74
2022/11/09 11:11:26;;;;;;;9.10;4.22;;;;;;;;;;5091766;28;20050;-75
2022/11/09 11:14:19;;;;;;;9.70;4.80;;;;;;;;;;5089537;28;20811;-75
2022/11/09 11:16:45;;;;;;;12.95;6.00;;;;;;;;;;5061137;28;20052;-74
2022/11/09 11:19:29;;;;;;;12.43;8.43;;;;;;;;;;5084333;28;20028;-74
2022/11/09 11:22:11;;;;;;;12.25;5.97;;;;;;;;;;5079488;28;20110;-75
2022/11/09 11:24:41;;;;;;;12.10;5.50;;;;;;;;;;5081430;28;20043;-74
2022/11/09 11:27:14;;;;;;;13.25;7.50;;;;;;;;;;5086983;28;20396;-75
2022/11/09 11:29:40;;;;;;;11.32;5.47;;;;;;;;;;5085001;28;20066;-74
2022/11/09 11:32:11;;;;;;;20.45;7.15;;;;;;;;;;5083511;28;20473;-74
2022/11/09 11:34:38;;;;;;;12.73;5.03;;;;;;;;;;5090345;28;20487;-74
2022/11/09 11:37:21;;;;;;;11.50;6.20;;;;;;;;;;5082995;28;20032;-74
2022/11/09 11:39:59;;;;;;;11.40;6.50;;;;;;;;;;5077325;28;20036;-74
2022/11/09 11:42:38;;;;;;;11.45;3.58;;;;;;;;;;5080133;28;20036;-75
2022/11/09 11:45:23;;;;;;;7.20;3.22;;;;;;;;;;5084279;28;20036;-74
2022/11/09 11:48:08;;;;;;;11.25;3.00;;;;;;;;;;5090445;28;20032;-75
2022/11/09 11:50:36;;;;;;;6.35;1.75;;;;;;;;;;5075376;28;20139;-74
2022/11/09 11:53:21;;;;;;;5.88;2.45;;;;;;;;;;5083453;28;20480;-74
2022/11/09 11:56:05;;;;;;;9.50;3.58;;;;;;;;;;5086529;28;20111;-75
2022/11/09 11:58:47;;;;;;;7.78;3.08;;;;;;;;;;5085447;28;20036;-74
2022/11/09 12:01:22;;;;;;;5.53;1.83;;;;;;;;;;5075077;28;20040;-75
2022/11/09 12:04:03;;;;;;;7.15;3.28;;;;;;;;;;5080706;28;20023;-75
2022/11/09 12:06:29;;;;;;;15.57;6.80;;;;;;;;;;5080745;28;20056;-74
2022/11/09 12:09:02;;;;;;;8.10;4.13;;;;;;;;;;5081886;28;20042;-74
2022/11/09 12:11:34;;;;;;;75.22;16.27;;;;;;;;;;5076995;28;20154;-75
2022/11/09 12:14:08;;;;;;;46.72;14.25;;;;;;;;;;5084256;28;20982;-74
2022/11/09 12:16:57;;;;;;;55.42;16.10;;;;;;;;;;5079342;28;20046;-75
2022/11/09 12:19:41;;;;;;;76.28;25.98;;;;;;;;;;5036244;28;20709;-74
2022/11/09 12:22:26;;;;;;;16.63;7.55;;;;;;;;;;5084351;28;20102;-75
2022/11/09 12:24:59;;;;;;;8.15;3.60;;;;;;;;;;5081798;28;20040;-75
2022/11/09 12:27:40;;;;;;;12.07;4.70;;;;;;;;;;5084022;28;20033;-74
2022/11/09 12:30:17;;;;;;;32.20;12.32;;;;;;;;;;5080272;28;20115;-74
2022/11/09 12:32:43;;;;;;;36.28;15.85;;;;;;;;;;5076706;28;20050;-75
2022/11/09 12:35:12;;;;;;;20.65;10.70;;;;;;;;;;5087721;28;20465;-74
2022/11/09 12:37:41;;;;;;;9.13;4.72;;;;;;;;;;5080481;28;20027;-74
2022/11/09 12:40:27;;;;;;;21.58;11.40;;;;;;;;;;5078893;28;20103;-75
2022/11/09 12:43:01;;;;;;;4.90;2.40;;;;;;;;;;5081789;28;20424;-74
2022/11/09 12:45:32;;;;;;;8.07;2.72;;;;;;;;;;5082669;28;20024;-75
2022/11/09 12:48:01;;;;;;;254.07;63.45;;;;;;;;;;5080984;28;20068;-74
2022/11/09 12:50:28;;;;;;;358.02;117.20;;;;;;;;;;5083745;28;20101;-75
2022/11/09 12:52:54;;;;;;;197.95;85.55;;;;;;;;;;5080540;28;20738;-75
2022/11/09 12:55:38;;;;;;;44.55;20.95;;;;;;;;;;5082104;28;20146;-75
2022/11/09 12:58:05;;;;;;;19.33;11.18;;;;;;;;;;5072845;28;20032;-75
2022/11/09 13:00:34;;;;;;;41.95;17.85;;;;;;;;;;5079902;28;20450;-74
2022/11/09 13:03:02;;;;;;;52.95;23.77;;;;;;;;;;5084000;28;20028;-75
2022/11/09 13:05:28;;;;;;;33.25;17.15;;;;;;;;;;5082059;28;20040;-75
2022/11/09 13:07:54;;;;;;;34.95;18.45;;;;;;;;;;5083197;28;20039;-75
2022/11/09 13:10:28;;;;;;;16.52;9.15;;;;;;;;;;5085236;28;20043;-74
2022/11/09 13:13:05;;;;;;;14.43;7.38;;;;;;;;;;5080629;28;20043;-75
2022/11/09 13:15:33;;;;;;;13.93;7.32;;;;;;;;;;5086601;28;20032;-75
2022/11/09 13:18:04;;;;;;;16.60;8.82;;;;;;;;;;5083835;28;20632;-75
2022/11/09 13:20:36;;;;;;;14.75;9.32;;;;;;;;;;5082299;28;20037;-75
2022/11/09 13:23:04;;;;;;;15.32;7.38;;;;;;;;;;5082540;28;20042;-74
2022/11/09 13:25:47;;;;;;;12.27;7.95;;;;;;;;;;5079797;28;20066;-74
2022/11/09 13:28:27;;;;;;;10.02;6.10;;;;;;;;;;5084471;28;20028;-74
2022/11/09 13:30:59;;;;;;;13.20;7.80;;;;;;;;;;5083582;28;20036;-75
2022/11/09 13:33:26;;;;;;;16.40;7.13;;;;;;;;;;5078601;28;20031;-74
2022/11/09 13:35:52;;;;;;;17.25;10.57;;;;;;;;;;5080784;28;20125;-75
2022/11/09 13:38:25;;;;;;;17.08;12.32;;;;;;;;;;5082255;28;20560;-75
2022/11/09 13:40:55;;;;;;;16.50;11.15;;;;;;;;;;5079091;28;20043;-75
2022/11/09 13:43:23;;;;;;;17.92;11.45;;;;;;;;;;5086277;28;20442;-75
2022/11/09 13:45:49;;;;;;;17.27;12.45;;;;;;;;;;5084420;28;20028;-75
2022/11/09 13:48:23;;;;;;;17.90;12.70;;;;;;;;;;5085666;28;20024;-74
2022/11/09 13:50:54;;;;;;;19.63;11.32;;;;;;;;;;5076556;28;20036;-74
2022/11/09 13:53:28;;;;;;;12.75;7.20;;;;;;;;;;5082066;28;20066;-74
2022/11/09 13:55:54;;;;;;;13.93;7.03;;;;;;;;;;5087098;28;20063;-75
2022/11/09 13:58:52;;;;;;;11.65;7.45;;;;;;;;;;5085412;28;20039;-74
2022/11/09 14:01:25;;;;;;;11.93;6.97;;;;;;;;;;5034217;28;20052;-74
2022/11/09 14:03:51;;;;;;;13.95;6.90;;;;;;;;;;5082850;28;20377;-74
2022/11/09 14:06:17;;;;;;;13.00;7.03;;;;;;;;;;5075844;28;20064;-75
2022/11/09 14:08:44;;;;;;;12.65;5.72;;;;;;;;;;5079873;28;20116;-74
2022/11/09 14:11:13;;;;;;;10.18;5.20;;;;;;;;;;5075862;28;20047;-75
2022/11/09 14:13:54;;;;;;;13.15;6.18;;;;;;;;;;5079264;28;20548;-75
2022/11/09 14:16:24;;;;;;;10.82;4.90;;;;;;;;;;5074056;28;20044;-75
2022/11/09 14:18:52;;;;;;;8.45;4.18;;;;;;;;;;5078153;28;20028;-74
2022/11/09 14:21:21;;;;;;;12.98;5.28;;;;;;;;;;5081632;28;20037;-75
2022/11/09 14:23:48;;;;;;;25.00;14.85;;;;;;;;;;5076887;28;20071;-74
2022/11/09 14:26:20;;;;;;;26.52;16.02;;;;;;;;;;5091246;28;20032;-74
2022/11/09 14:28:46;;;;;;;26.08;16.27;;;;;;;;;;5084834;28;20157;-74
2022/11/09 14:31:28;;;;;;;25.80;19.13;;;;;;;;;;5085595;28;20200;-75
2022/11/09 14:33:54;;;;;;;;;;;;;;;;;;5081833;28;20032;-74
2022/11/09 14:36:20;;;;;;;23.33;15.48;;;;;;;;;;5084347;28;19927;-75
2022/11/09 14:38:47;;;;;;;18.70;14.02;;;;;;;;;;5081664;28;20044;-75
2022/11/09 14:41:21;;;;;;;21.90;16.33;;;;;;;;;;5089759;28;20058;-75
2022/11/09 14:43:48;;;;;;;29.77;22.25;;;;;;;;;;5080871;28;20073;-75